sensor_id;sensor_type;location;lat;lon;timestamp;P1;durP1;ratioP1;P2;durP2;ratioP2
8102;SDS011;4094;49.948;11.574;2023-04-23T00:01:17;5.13;;;4.63;;
8102;SDS011;4094;49.948;11.574;2023-04-23T00:03:47;5.40;;;5.00;;
8102;SDS011;4094;49.948;11.574;2023-04-23T00:06:17;5.17;;;4.73;;
8102;SDS011;4094;49.948;11.574;2023-04-23T00:08:50;5.00;;;4.60;;
8102;SDS011;4094;49.948;11.574;2023-04-23T00:11:21;5.13;;;4.83;;
8102;SDS011;4094;49.948;11.574;2023-04-23T00:13:51;5.27;;;4.87;;
8102;SDS011;4094;49.948;11.574;2023-04-23T00:16:20;5.23;;;4.80;;
8102;SDS011;4094;49.948;11.574;2023-04-23T00:18:52;5.03;;;4.73;;
8102;SDS011;4094;49.948;11.574;2023-04-23T00:21:21;5.40;;;4.90;;
8102;SDS011;4094;49.948;11.574;2023-04-23T00:23:52;5.43;;;4.90;;
8102;SDS011;4094;49.948;11.574;2023-04-23T00:26:22;4.70;;;4.47;;
8102;SDS011;4094;49.948;11.574;2023-04-23T00:28:51;5.07;;;4.60;;
8102;SDS011;4094;49.948;11.574;2023-04-23T00:31:20;6.00;;;5.40;;
8102;SDS011;4094;49.948;11.574;2023-04-23T00:33:50;5.00;;;4.60;;
8102;SDS011;4094;49.948;11.574;2023-04-23T00:36:20;5.63;;;5.23;;
8102;SDS011;4094;49.948;11.574;2023-04-23T00:38:49;5.50;;;5.10;;
8102;SDS011;4094;49.948;11.574;2023-04-23T00:41:20;5.53;;;5.13;;
8102;SDS011;4094;49.948;11.574;2023-04-23T00:43:50;4.97;;;4.57;;
8102;SDS011;4094;49.948;11.574;2023-04-23T00:46:20;6.23;;;5.63;;
8102;SDS011;4094;49.948;11.574;2023-04-23T00:48:50;5.17;;;4.87;;
8102;SDS011;4094;49.948;11.574;2023-04-23T00:51:20;5.50;;;5.10;;
8102;SDS011;4094;49.948;11.574;2023-04-23T00:53:51;5.40;;;4.90;;
8102;SDS011;4094;49.948;11.574;2023-04-23T00:56:22;5.77;;;5.20;;
8102;SDS011;4094;49.948;11.574;2023-04-23T00:58:52;6.17;;;5.67;;
8102;SDS011;4094;49.948;11.574;2023-04-23T01:01:22;5.90;;;5.40;;
8102;SDS011;4094;49.948;11.574;2023-04-23T01:03:52;5.90;;;5.50;;
8102;SDS011;4094;49.948;11.574;2023-04-23T01:06:23;5.73;;;5.27;;
8102;SDS011;4094;49.948;11.574;2023-04-23T01:08:55;6.87;;;5.63;;
8102;SDS011;4094;49.948;11.574;2023-04-23T01:11:26;8.27;;;5.90;;
8102;SDS011;4094;49.948;11.574;2023-04-23T01:13:55;5.50;;;5.00;;
8102;SDS011;4094;49.948;11.574;2023-04-23T01:16:27;5.63;;;5.33;;
8102;SDS011;4094;49.948;11.574;2023-04-23T01:18:56;6.00;;;5.60;;
8102;SDS011;4094;49.948;11.574;2023-04-23T01:21:26;6.43;;;5.90;;
8102;SDS011;4094;49.948;11.574;2023-04-23T01:23:59;6.17;;;5.60;;
8102;SDS011;4094;49.948;11.574;2023-04-23T01:26:28;6.70;;;6.13;;
8102;SDS011;4094;49.948;11.574;2023-04-23T01:28:58;6.70;;;6.20;;
8102;SDS011;4094;49.948;11.574;2023-04-23T01:31:29;6.60;;;6.10;;
8102;SDS011;4094;49.948;11.574;2023-04-23T01:33:59;6.03;;;5.53;;
8102;SDS011;4094;49.948;11.574;2023-04-23T01:36:28;5.40;;;5.00;;
8102;SDS011;4094;49.948;11.574;2023-04-23T01:39:00;5.83;;;5.33;;
8102;SDS011;4094;49.948;11.574;2023-04-23T01:41:29;5.77;;;5.37;;
8102;SDS011;4094;49.948;11.574;2023-04-23T01:43:59;6.23;;;5.73;;
8102;SDS011;4094;49.948;11.574;2023-04-23T01:46:29;6.20;;;5.73;;
8102;SDS011;4094;49.948;11.574;2023-04-23T01:48:59;6.03;;;5.60;;
8102;SDS011;4094;49.948;11.574;2023-04-23T01:51:29;5.93;;;5.53;;
8102;SDS011;4094;49.948;11.574;2023-04-23T01:54:00;6.20;;;5.70;;
8102;SDS011;4094;49.948;11.574;2023-04-23T01:56:29;6.23;;;5.83;;
8102;SDS011;4094;49.948;11.574;2023-04-23T01:59:00;5.93;;;5.50;;
8102;SDS011;4094;49.948;11.574;2023-04-23T02:01:39;6.80;;;6.20;;
8102;SDS011;4094;49.948;11.574;2023-04-23T02:04:11;6.60;;;6.10;;
8102;SDS011;4094;49.948;11.574;2023-04-23T02:06:42;6.10;;;5.70;;
8102;SDS011;4094;49.948;11.574;2023-04-23T02:09:15;7.47;;;5.93;;
8102;SDS011;4094;49.948;11.574;2023-04-23T02:11:44;6.30;;;5.70;;
8102;SDS011;4094;49.948;11.574;2023-04-23T02:14:15;6.67;;;6.07;;
8102;SDS011;4094;49.948;11.574;2023-04-23T02:16:45;5.90;;;5.50;;
8102;SDS011;4094;49.948;11.574;2023-04-23T02:19:14;6.20;;;5.80;;
8102;SDS011;4094;49.948;11.574;2023-04-23T02:21:43;6.20;;;5.70;;
8102;SDS011;4094;49.948;11.574;2023-04-23T02:24:12;7.10;;;6.50;;
8102;SDS011;4094;49.948;11.574;2023-04-23T02:26:43;6.70;;;6.20;;
8102;SDS011;4094;49.948;11.574;2023-04-23T02:29:15;6.80;;;6.07;;
8102;SDS011;4094;49.948;11.574;2023-04-23T02:31:44;6.00;;;5.47;;
8102;SDS011;4094;49.948;11.574;2023-04-23T02:34:14;6.47;;;5.93;;
8102;SDS011;4094;49.948;11.574;2023-04-23T02:36:43;6.50;;;5.97;;
8102;SDS011;4094;49.948;11.574;2023-04-23T02:39:13;6.43;;;5.93;;
8102;SDS011;4094;49.948;11.574;2023-04-23T02:41:44;6.27;;;5.87;;
8102;SDS011;4094;49.948;11.574;2023-04-23T02:44:14;6.83;;;6.33;;
8102;SDS011;4094;49.948;11.574;2023-04-23T02:46:43;6.60;;;6.10;;
8102;SDS011;4094;49.948;11.574;2023-04-23T02:49:13;6.80;;;6.17;;
8102;SDS011;4094;49.948;11.574;2023-04-23T02:51:42;6.87;;;6.33;;
8102;SDS011;4094;49.948;11.574;2023-04-23T02:54:14;7.00;;;6.50;;
8102;SDS011;4094;49.948;11.574;2023-04-23T02:56:44;6.73;;;5.93;;
8102;SDS011;4094;49.948;11.574;2023-04-23T02:59:14;6.80;;;6.10;;
8102;SDS011;4094;49.948;11.574;2023-04-23T03:01:43;6.90;;;6.33;;
8102;SDS011;4094;49.948;11.574;2023-04-23T03:04:14;6.57;;;6.17;;
8102;SDS011;4094;49.948;11.574;2023-04-23T03:06:44;6.37;;;5.77;;
8102;SDS011;4094;49.948;11.574;2023-04-23T03:09:16;6.87;;;6.37;;
8102;SDS011;4094;49.948;11.574;2023-04-23T03:11:46;6.50;;;6.10;;
8102;SDS011;4094;49.948;11.574;2023-04-23T03:14:15;6.60;;;6.10;;
8102;SDS011;4094;49.948;11.574;2023-04-23T03:16:45;7.03;;;6.53;;
8102;SDS011;4094;49.948;11.574;2023-04-23T03:19:16;7.20;;;6.60;;
8102;SDS011;4094;49.948;11.574;2023-04-23T03:21:45;6.23;;;5.77;;
8102;SDS011;4094;49.948;11.574;2023-04-23T03:24:16;6.80;;;6.30;;
8102;SDS011;4094;49.948;11.574;2023-04-23T03:26:46;6.60;;;6.10;;
8102;SDS011;4094;49.948;11.574;2023-04-23T03:29:15;6.37;;;5.93;;
8102;SDS011;4094;49.948;11.574;2023-04-23T03:31:44;6.23;;;5.73;;
8102;SDS011;4094;49.948;11.574;2023-04-23T03:34:13;7.00;;;6.20;;
8102;SDS011;4094;49.948;11.574;2023-04-23T03:36:43;6.23;;;5.73;;
8102;SDS011;4094;49.948;11.574;2023-04-23T03:39:17;6.10;;;5.60;;
8102;SDS011;4094;49.948;11.574;2023-04-23T03:41:50;6.13;;;5.67;;
8102;SDS011;4094;49.948;11.574;2023-04-23T03:44:23;6.20;;;5.73;;
8102;SDS011;4094;49.948;11.574;2023-04-23T03:46:53;5.73;;;5.33;;
8102;SDS011;4094;49.948;11.574;2023-04-23T03:49:23;6.07;;;5.67;;
8102;SDS011;4094;49.948;11.574;2023-04-23T03:51:55;6.13;;;5.73;;
8102;SDS011;4094;49.948;11.574;2023-04-23T03:54:26;6.67;;;6.10;;
8102;SDS011;4094;49.948;11.574;2023-04-23T03:57:11;5.90;;;5.50;;
8102;SDS011;4094;49.948;11.574;2023-04-23T04:00:05;6.43;;;5.93;;
8102;SDS011;4094;49.948;11.574;2023-04-23T04:02:39;5.90;;;5.40;;
8102;SDS011;4094;49.948;11.574;2023-04-23T04:05:09;6.20;;;5.83;;
8102;SDS011;4094;49.948;11.574;2023-04-23T04:07:39;6.43;;;5.93;;
8102;SDS011;4094;49.948;11.574;2023-04-23T04:10:10;6.47;;;5.87;;
8102;SDS011;4094;49.948;11.574;2023-04-23T04:12:39;6.77;;;6.27;;
8102;SDS011;4094;49.948;11.574;2023-04-23T04:15:11;6.03;;;5.63;;
8102;SDS011;4094;49.948;11.574;2023-04-23T04:17:41;6.43;;;6.03;;
8102;SDS011;4094;49.948;11.574;2023-04-23T04:20:12;6.23;;;5.57;;
8102;SDS011;4094;49.948;11.574;2023-04-23T04:22:41;6.23;;;5.83;;
8102;SDS011;4094;49.948;11.574;2023-04-23T04:25:11;6.37;;;5.87;;
8102;SDS011;4094;49.948;11.574;2023-04-23T04:27:40;6.53;;;5.93;;
8102;SDS011;4094;49.948;11.574;2023-04-23T04:30:10;6.20;;;5.70;;
8102;SDS011;4094;49.948;11.574;2023-04-23T04:32:39;5.97;;;5.57;;
8102;SDS011;4094;49.948;11.574;2023-04-23T04:35:09;6.77;;;6.17;;
8102;SDS011;4094;49.948;11.574;2023-04-23T04:37:39;6.33;;;5.77;;
8102;SDS011;4094;49.948;11.574;2023-04-23T04:40:12;7.53;;;6.10;;
8102;SDS011;4094;49.948;11.574;2023-04-23T04:42:42;6.20;;;5.70;;
8102;SDS011;4094;49.948;11.574;2023-04-23T04:45:12;6.90;;;6.30;;
8102;SDS011;4094;49.948;11.574;2023-04-23T04:47:43;7.00;;;6.40;;
8102;SDS011;4094;49.948;11.574;2023-04-23T04:50:12;5.97;;;5.53;;
8102;SDS011;4094;49.948;11.574;2023-04-23T04:52:42;6.63;;;6.23;;
8102;SDS011;4094;49.948;11.574;2023-04-23T04:55:12;6.93;;;6.23;;
8102;SDS011;4094;49.948;11.574;2023-04-23T04:57:41;6.97;;;6.37;;
8102;SDS011;4094;49.948;11.574;2023-04-23T05:00:20;6.47;;;5.87;;
8102;SDS011;4094;49.948;11.574;2023-04-23T05:02:51;6.53;;;5.93;;
8102;SDS011;4094;49.948;11.574;2023-04-23T05:05:21;6.80;;;6.20;;
8102;SDS011;4094;49.948;11.574;2023-04-23T05:07:51;7.07;;;6.47;;
8102;SDS011;4094;49.948;11.574;2023-04-23T05:10:22;6.27;;;5.87;;
8102;SDS011;4094;49.948;11.574;2023-04-23T05:12:52;6.50;;;5.93;;
8102;SDS011;4094;49.948;11.574;2023-04-23T05:15:21;7.20;;;6.50;;
8102;SDS011;4094;49.948;11.574;2023-04-23T05:17:50;6.37;;;5.97;;
8102;SDS011;4094;49.948;11.574;2023-04-23T05:20:20;6.90;;;6.30;;
8102;SDS011;4094;49.948;11.574;2023-04-23T05:22:49;6.47;;;5.87;;
8102;SDS011;4094;49.948;11.574;2023-04-23T05:25:18;6.40;;;5.90;;
8102;SDS011;4094;49.948;11.574;2023-04-23T05:27:49;6.60;;;6.10;;
8102;SDS011;4094;49.948;11.574;2023-04-23T05:30:34;6.27;;;5.83;;
8102;SDS011;4094;49.948;11.574;2023-04-23T05:33:03;6.73;;;6.23;;
8102;SDS011;4094;49.948;11.574;2023-04-23T05:35:33;6.60;;;6.10;;
8102;SDS011;4094;49.948;11.574;2023-04-23T05:38:03;6.77;;;6.20;;
8102;SDS011;4094;49.948;11.574;2023-04-23T05:40:32;6.53;;;6.13;;
8102;SDS011;4094;49.948;11.574;2023-04-23T05:43:03;6.17;;;5.77;;
8102;SDS011;4094;49.948;11.574;2023-04-23T05:45:32;6.70;;;6.20;;
8102;SDS011;4094;49.948;11.574;2023-04-23T05:48:02;6.40;;;6.00;;
8102;SDS011;4094;49.948;11.574;2023-04-23T05:50:31;5.93;;;5.53;;
8102;SDS011;4094;49.948;11.574;2023-04-23T05:53:00;6.27;;;5.67;;
8102;SDS011;4094;49.948;11.574;2023-04-23T05:55:29;5.77;;;5.47;;
8102;SDS011;4094;49.948;11.574;2023-04-23T05:57:59;5.83;;;5.53;;
8102;SDS011;4094;49.948;11.574;2023-04-23T06:00:30;5.93;;;5.43;;
8102;SDS011;4094;49.948;11.574;2023-04-23T06:03:02;6.20;;;5.80;;
8102;SDS011;4094;49.948;11.574;2023-04-23T06:05:31;6.20;;;5.80;;
8102;SDS011;4094;49.948;11.574;2023-04-23T06:08:01;6.20;;;5.70;;
8102;SDS011;4094;49.948;11.574;2023-04-23T06:10:30;6.23;;;5.87;;
8102;SDS011;4094;49.948;11.574;2023-04-23T06:13:00;6.60;;;6.20;;
8102;SDS011;4094;49.948;11.574;2023-04-23T06:15:31;6.10;;;5.70;;
8102;SDS011;4094;49.948;11.574;2023-04-23T06:18:00;6.17;;;5.77;;
8102;SDS011;4094;49.948;11.574;2023-04-23T06:20:29;6.40;;;6.00;;
8102;SDS011;4094;49.948;11.574;2023-04-23T06:22:59;5.97;;;5.60;;
8102;SDS011;4094;49.948;11.574;2023-04-23T06:25:29;5.93;;;5.37;;
8102;SDS011;4094;49.948;11.574;2023-04-23T06:27:58;6.10;;;5.60;;
8102;SDS011;4094;49.948;11.574;2023-04-23T06:30:34;6.13;;;5.73;;
8102;SDS011;4094;49.948;11.574;2023-04-23T06:33:03;5.97;;;5.57;;
8102;SDS011;4094;49.948;11.574;2023-04-23T06:35:32;5.90;;;5.50;;
8102;SDS011;4094;49.948;11.574;2023-04-23T06:38:01;6.20;;;5.67;;
8102;SDS011;4094;49.948;11.574;2023-04-23T06:40:31;6.10;;;5.70;;
8102;SDS011;4094;49.948;11.574;2023-04-23T06:43:00;5.97;;;5.47;;
8102;SDS011;4094;49.948;11.574;2023-04-23T06:45:41;5.83;;;5.53;;
8102;SDS011;4094;49.948;11.574;2023-04-23T06:48:10;6.37;;;5.97;;
8102;SDS011;4094;49.948;11.574;2023-04-23T06:50:39;5.87;;;5.47;;
8102;SDS011;4094;49.948;11.574;2023-04-23T06:53:08;6.03;;;5.63;;
8102;SDS011;4094;49.948;11.574;2023-04-23T06:55:37;5.67;;;5.27;;
8102;SDS011;4094;49.948;11.574;2023-04-23T06:58:07;6.13;;;5.70;;
8102;SDS011;4094;49.948;11.574;2023-04-23T07:00:36;5.90;;;5.50;;
8102;SDS011;4094;49.948;11.574;2023-04-23T07:03:07;5.90;;;5.60;;
8102;SDS011;4094;49.948;11.574;2023-04-23T07:05:36;5.50;;;5.20;;
8102;SDS011;4094;49.948;11.574;2023-04-23T07:08:05;5.60;;;5.23;;
8102;SDS011;4094;49.948;11.574;2023-04-23T07:10:34;4.97;;;4.57;;
8102;SDS011;4094;49.948;11.574;2023-04-23T07:13:04;5.20;;;4.90;;
8102;SDS011;4094;49.948;11.574;2023-04-23T07:15:33;5.67;;;5.27;;
8102;SDS011;4094;49.948;11.574;2023-04-23T07:18:04;5.10;;;4.80;;
8102;SDS011;4094;49.948;11.574;2023-04-23T07:20:35;5.53;;;5.23;;
8102;SDS011;4094;49.948;11.574;2023-04-23T07:23:04;5.30;;;4.90;;
8102;SDS011;4094;49.948;11.574;2023-04-23T07:25:34;5.90;;;5.57;;
8102;SDS011;4094;49.948;11.574;2023-04-23T07:28:03;5.67;;;5.37;;
8102;SDS011;4094;49.948;11.574;2023-04-23T07:30:32;5.33;;;5.03;;
8102;SDS011;4094;49.948;11.574;2023-04-23T07:33:02;5.47;;;5.13;;
8102;SDS011;4094;49.948;11.574;2023-04-23T07:35:31;4.97;;;4.67;;
8102;SDS011;4094;49.948;11.574;2023-04-23T07:38:02;5.47;;;5.13;;
8102;SDS011;4094;49.948;11.574;2023-04-23T07:40:31;5.80;;;5.40;;
8102;SDS011;4094;49.948;11.574;2023-04-23T07:43:00;5.10;;;4.80;;
8102;SDS011;4094;49.948;11.574;2023-04-23T07:45:30;5.33;;;5.03;;
8102;SDS011;4094;49.948;11.574;2023-04-23T07:47:59;5.60;;;5.30;;
8102;SDS011;4094;49.948;11.574;2023-04-23T07:50:29;5.60;;;5.20;;
8102;SDS011;4094;49.948;11.574;2023-04-23T07:52:58;5.53;;;5.13;;
8102;SDS011;4094;49.948;11.574;2023-04-23T07:55:29;5.50;;;5.20;;
8102;SDS011;4094;49.948;11.574;2023-04-23T07:57:58;5.87;;;5.47;;
8102;SDS011;4094;49.948;11.574;2023-04-23T08:00:27;5.10;;;4.90;;
8102;SDS011;4094;49.948;11.574;2023-04-23T08:02:57;5.30;;;5.00;;
8102;SDS011;4094;49.948;11.574;2023-04-23T08:05:27;5.60;;;5.30;;
8102;SDS011;4094;49.948;11.574;2023-04-23T08:07:56;5.80;;;5.30;;
8102;SDS011;4094;49.948;11.574;2023-04-23T08:10:25;5.27;;;4.87;;
8102;SDS011;4094;49.948;11.574;2023-04-23T08:12:56;5.53;;;5.23;;
8102;SDS011;4094;49.948;11.574;2023-04-23T08:15:25;5.30;;;5.00;;
8102;SDS011;4094;49.948;11.574;2023-04-23T08:17:54;5.80;;;5.40;;
8102;SDS011;4094;49.948;11.574;2023-04-23T08:20:24;5.20;;;4.90;;
8102;SDS011;4094;49.948;11.574;2023-04-23T08:22:53;5.47;;;5.17;;
8102;SDS011;4094;49.948;11.574;2023-04-23T08:25:23;5.80;;;5.50;;
8102;SDS011;4094;49.948;11.574;2023-04-23T08:27:52;5.10;;;4.80;;
8102;SDS011;4094;49.948;11.574;2023-04-23T08:30:23;5.70;;;5.30;;
8102;SDS011;4094;49.948;11.574;2023-04-23T08:32:53;5.63;;;5.27;;
8102;SDS011;4094;49.948;11.574;2023-04-23T08:35:23;5.20;;;4.80;;
8102;SDS011;4094;49.948;11.574;2023-04-23T08:37:52;5.30;;;5.00;;
8102;SDS011;4094;49.948;11.574;2023-04-23T08:40:22;5.60;;;5.13;;
8102;SDS011;4094;49.948;11.574;2023-04-23T08:42:53;5.80;;;5.40;;
8102;SDS011;4094;49.948;11.574;2023-04-23T08:45:27;5.60;;;5.30;;
8102;SDS011;4094;49.948;11.574;2023-04-23T08:47:58;5.37;;;4.97;;
8102;SDS011;4094;49.948;11.574;2023-04-23T08:50:29;5.63;;;5.33;;
8102;SDS011;4094;49.948;11.574;2023-04-23T08:52:59;5.23;;;4.83;;
8102;SDS011;4094;49.948;11.574;2023-04-23T08:55:33;5.43;;;5.03;;
8102;SDS011;4094;49.948;11.574;2023-04-23T08:58:03;4.90;;;4.60;;
8102;SDS011;4094;49.948;11.574;2023-04-23T09:00:35;5.53;;;5.20;;
8102;SDS011;4094;49.948;11.574;2023-04-23T09:03:05;5.33;;;5.03;;
8102;SDS011;4094;49.948;11.574;2023-04-23T09:05:36;4.97;;;4.67;;
8102;SDS011;4094;49.948;11.574;2023-04-23T09:08:05;5.00;;;4.60;;
8102;SDS011;4094;49.948;11.574;2023-04-23T09:10:36;5.17;;;4.87;;
8102;SDS011;4094;49.948;11.574;2023-04-23T09:13:08;5.07;;;4.77;;
8102;SDS011;4094;49.948;11.574;2023-04-23T09:15:41;5.07;;;4.77;;
8102;SDS011;4094;49.948;11.574;2023-04-23T09:18:10;5.20;;;4.80;;
8102;SDS011;4094;49.948;11.574;2023-04-23T09:20:40;5.07;;;4.57;;
8102;SDS011;4094;49.948;11.574;2023-04-23T09:23:12;5.07;;;4.77;;
8102;SDS011;4094;49.948;11.574;2023-04-23T09:25:42;4.60;;;4.30;;
8102;SDS011;4094;49.948;11.574;2023-04-23T09:28:12;4.53;;;4.23;;
8102;SDS011;4094;49.948;11.574;2023-04-23T09:30:43;4.77;;;4.47;;
8102;SDS011;4094;49.948;11.574;2023-04-23T09:33:15;5.10;;;4.77;;
8102;SDS011;4094;49.948;11.574;2023-04-23T09:35:44;5.00;;;4.70;;
8102;SDS011;4094;49.948;11.574;2023-04-23T09:38:14;5.37;;;4.93;;
8102;SDS011;4094;49.948;11.574;2023-04-23T09:40:44;5.00;;;4.60;;
8102;SDS011;4094;49.948;11.574;2023-04-23T09:43:13;5.27;;;4.97;;
8102;SDS011;4094;49.948;11.574;2023-04-23T09:45:48;4.97;;;4.67;;
8102;SDS011;4094;49.948;11.574;2023-04-23T09:48:18;5.23;;;4.83;;
8102;SDS011;4094;49.948;11.574;2023-04-23T09:50:48;5.23;;;4.83;;
8102;SDS011;4094;49.948;11.574;2023-04-23T09:53:18;4.80;;;4.40;;
8102;SDS011;4094;49.948;11.574;2023-04-23T09:55:47;4.97;;;4.67;;
8102;SDS011;4094;49.948;11.574;2023-04-23T09:58:20;4.27;;;4.07;;
8102;SDS011;4094;49.948;11.574;2023-04-23T10:00:56;4.77;;;4.47;;
8102;SDS011;4094;49.948;11.574;2023-04-23T10:03:34;5.20;;;4.70;;
8102;SDS011;4094;49.948;11.574;2023-04-23T10:06:06;4.47;;;4.20;;
8102;SDS011;4094;49.948;11.574;2023-04-23T10:08:52;4.90;;;4.60;;
8102;SDS011;4094;49.948;11.574;2023-04-23T10:11:21;4.60;;;4.30;;
8102;SDS011;4094;49.948;11.574;2023-04-23T10:13:52;4.83;;;4.53;;
8102;SDS011;4094;49.948;11.574;2023-04-23T10:16:23;4.80;;;4.50;;
8102;SDS011;4094;49.948;11.574;2023-04-23T10:19:02;4.17;;;3.97;;
8102;SDS011;4094;49.948;11.574;2023-04-23T10:21:33;4.40;;;4.10;;
8102;SDS011;4094;49.948;11.574;2023-04-23T10:24:19;4.50;;;4.20;;
8102;SDS011;4094;49.948;11.574;2023-04-23T10:26:51;4.60;;;4.30;;
8102;SDS011;4094;49.948;11.574;2023-04-23T10:29:25;4.13;;;3.93;;
8102;SDS011;4094;49.948;11.574;2023-04-23T10:31:58;4.37;;;3.97;;
8102;SDS011;4094;49.948;11.574;2023-04-23T10:34:29;4.37;;;4.10;;
8102;SDS011;4094;49.948;11.574;2023-04-23T10:37:00;4.20;;;4.00;;
8102;SDS011;4094;49.948;11.574;2023-04-23T10:39:31;4.00;;;3.80;;
8102;SDS011;4094;49.948;11.574;2023-04-23T10:42:01;4.13;;;3.83;;
8102;SDS011;4094;49.948;11.574;2023-04-23T10:44:32;4.30;;;4.00;;
8102;SDS011;4094;49.948;11.574;2023-04-23T10:47:10;4.10;;;3.80;;
8102;SDS011;4094;49.948;11.574;2023-04-23T10:49:42;3.80;;;3.60;;
8102;SDS011;4094;49.948;11.574;2023-04-23T10:52:12;3.80;;;3.60;;
8102;SDS011;4094;49.948;11.574;2023-04-23T10:54:48;3.73;;;3.53;;
8102;SDS011;4094;49.948;11.574;2023-04-23T10:57:26;3.90;;;3.70;;
8102;SDS011;4094;49.948;11.574;2023-04-23T10:59:56;4.03;;;3.73;;
8102;SDS011;4094;49.948;11.574;2023-04-23T11:02:28;3.80;;;3.60;;
8102;SDS011;4094;49.948;11.574;2023-04-23T11:05:11;4.07;;;3.80;;
8102;SDS011;4094;49.948;11.574;2023-04-23T11:07:42;3.90;;;3.70;;
8102;SDS011;4094;49.948;11.574;2023-04-23T11:10:53;3.60;;;3.40;;
8102;SDS011;4094;49.948;11.574;2023-04-23T11:13:24;3.77;;;3.57;;
8102;SDS011;4094;49.948;11.574;2023-04-23T11:18:57;3.50;;;3.30;;
8102;SDS011;4094;49.948;11.574;2023-04-23T11:24:26;3.90;;;3.70;;
8102;SDS011;4094;49.948;11.574;2023-04-23T11:26:56;3.77;;;3.57;;
8102;SDS011;4094;49.948;11.574;2023-04-23T11:29:28;3.47;;;3.27;;
8102;SDS011;4094;49.948;11.574;2023-04-23T11:31:57;3.67;;;3.47;;
8102;SDS011;4094;49.948;11.574;2023-04-23T11:34:32;3.70;;;3.50;;
8102;SDS011;4094;49.948;11.574;2023-04-23T11:37:02;3.57;;;3.37;;
8102;SDS011;4094;49.948;11.574;2023-04-23T11:39:32;3.33;;;3.13;;
8102;SDS011;4094;49.948;11.574;2023-04-23T11:42:01;3.37;;;3.17;;
8102;SDS011;4094;49.948;11.574;2023-04-23T11:44:32;3.70;;;3.50;;
8102;SDS011;4094;49.948;11.574;2023-04-23T11:47:01;3.63;;;3.37;;
8102;SDS011;4094;49.948;11.574;2023-04-23T11:49:32;3.20;;;3.00;;
8102;SDS011;4094;49.948;11.574;2023-04-23T11:52:02;3.30;;;3.10;;
8102;SDS011;4094;49.948;11.574;2023-04-23T11:54:32;3.60;;;3.37;;
8102;SDS011;4094;49.948;11.574;2023-04-23T11:57:01;3.30;;;3.10;;
8102;SDS011;4094;49.948;11.574;2023-04-23T11:59:32;3.17;;;3.07;;
8102;SDS011;4094;49.948;11.574;2023-04-23T12:02:01;2.87;;;2.77;;
8102;SDS011;4094;49.948;11.574;2023-04-23T12:04:32;2.80;;;2.70;;
8102;SDS011;4094;49.948;11.574;2023-04-23T12:07:01;2.80;;;2.70;;
8102;SDS011;4094;49.948;11.574;2023-04-23T12:09:49;3.13;;;2.93;;
8102;SDS011;4094;49.948;11.574;2023-04-23T12:12:18;2.97;;;2.87;;
8102;SDS011;4094;49.948;11.574;2023-04-23T12:14:48;3.10;;;2.90;;
8102;SDS011;4094;49.948;11.574;2023-04-23T12:17:17;3.20;;;3.00;;
8102;SDS011;4094;49.948;11.574;2023-04-23T12:19:48;2.60;;;2.50;;
8102;SDS011;4094;49.948;11.574;2023-04-23T12:22:17;2.90;;;2.70;;
8102;SDS011;4094;49.948;11.574;2023-04-23T12:24:54;2.97;;;2.77;;
8102;SDS011;4094;49.948;11.574;2023-04-23T12:27:23;3.00;;;2.80;;
8102;SDS011;4094;49.948;11.574;2023-04-23T12:29:58;2.60;;;2.50;;
8102;SDS011;4094;49.948;11.574;2023-04-23T12:32:29;2.60;;;2.50;;
8102;SDS011;4094;49.948;11.574;2023-04-23T12:35:02;3.10;;;2.90;;
8102;SDS011;4094;49.948;11.574;2023-04-23T12:37:34;2.90;;;2.70;;
8102;SDS011;4094;49.948;11.574;2023-04-23T12:40:05;2.87;;;2.70;;
8102;SDS011;4094;49.948;11.574;2023-04-23T12:42:35;3.10;;;2.90;;
8102;SDS011;4094;49.948;11.574;2023-04-23T12:45:05;3.33;;;3.03;;
8102;SDS011;4094;49.948;11.574;2023-04-23T12:47:36;2.70;;;2.60;;
8102;SDS011;4094;49.948;11.574;2023-04-23T12:50:10;2.87;;;2.73;;
8102;SDS011;4094;49.948;11.574;2023-04-23T12:52:40;3.00;;;2.80;;
8102;SDS011;4094;49.948;11.574;2023-04-23T12:55:10;2.90;;;2.70;;
8102;SDS011;4094;49.948;11.574;2023-04-23T12:57:39;2.70;;;2.50;;
8102;SDS011;4094;49.948;11.574;2023-04-23T13:00:09;2.63;;;2.53;;
8102;SDS011;4094;49.948;11.574;2023-04-23T13:02:39;2.50;;;2.40;;
8102;SDS011;4094;49.948;11.574;2023-04-23T13:05:08;3.20;;;2.90;;
8102;SDS011;4094;49.948;11.574;2023-04-23T13:07:40;2.80;;;2.60;;
8102;SDS011;4094;49.948;11.574;2023-04-23T13:10:10;2.67;;;2.57;;
8102;SDS011;4094;49.948;11.574;2023-04-23T13:12:39;2.70;;;2.60;;
8102;SDS011;4094;49.948;11.574;2023-04-23T13:15:09;2.80;;;2.70;;
8102;SDS011;4094;49.948;11.574;2023-04-23T13:17:40;3.10;;;2.90;;
8102;SDS011;4094;49.948;11.574;2023-04-23T13:20:12;3.00;;;2.80;;
8102;SDS011;4094;49.948;11.574;2023-04-23T13:22:41;3.10;;;2.90;;
8102;SDS011;4094;49.948;11.574;2023-04-23T13:25:10;3.07;;;2.97;;
8102;SDS011;4094;49.948;11.574;2023-04-23T13:27:40;3.10;;;2.80;;
8102;SDS011;4094;49.948;11.574;2023-04-23T13:30:10;3.00;;;2.80;;
8102;SDS011;4094;49.948;11.574;2023-04-23T13:32:40;2.70;;;2.60;;
8102;SDS011;4094;49.948;11.574;2023-04-23T13:35:09;2.67;;;2.57;;
8102;SDS011;4094;49.948;11.574;2023-04-23T13:37:41;3.30;;;3.10;;
8102;SDS011;4094;49.948;11.574;2023-04-23T13:40:12;2.87;;;2.70;;
8102;SDS011;4094;49.948;11.574;2023-04-23T13:42:44;3.00;;;2.80;;
8102;SDS011;4094;49.948;11.574;2023-04-23T13:45:16;2.80;;;2.70;;
8102;SDS011;4094;49.948;11.574;2023-04-23T13:47:46;2.73;;;2.53;;
8102;SDS011;4094;49.948;11.574;2023-04-23T13:50:15;2.40;;;2.20;;
8102;SDS011;4094;49.948;11.574;2023-04-23T13:52:51;3.00;;;2.80;;
8102;SDS011;4094;49.948;11.574;2023-04-23T13:55:24;2.30;;;2.20;;
8102;SDS011;4094;49.948;11.574;2023-04-23T13:57:56;2.67;;;2.50;;
8102;SDS011;4094;49.948;11.574;2023-04-23T14:00:26;2.20;;;2.00;;
8102;SDS011;4094;49.948;11.574;2023-04-23T14:02:56;2.30;;;2.20;;
8102;SDS011;4094;49.948;11.574;2023-04-23T14:05:26;3.00;;;2.30;;
8102;SDS011;4094;49.948;11.574;2023-04-23T14:07:57;2.37;;;2.27;;
8102;SDS011;4094;49.948;11.574;2023-04-23T14:10:26;2.40;;;2.30;;
8102;SDS011;4094;49.948;11.574;2023-04-23T14:12:56;2.50;;;2.30;;
8102;SDS011;4094;49.948;11.574;2023-04-23T14:15:25;2.40;;;2.20;;
8102;SDS011;4094;49.948;11.574;2023-04-23T14:17:55;2.20;;;2.10;;
8102;SDS011;4094;49.948;11.574;2023-04-23T14:20:24;2.57;;;2.43;;
8102;SDS011;4094;49.948;11.574;2023-04-23T14:23:02;2.47;;;2.27;;
8102;SDS011;4094;49.948;11.574;2023-04-23T14:25:52;2.50;;;2.40;;
8102;SDS011;4094;49.948;11.574;2023-04-23T14:28:26;2.43;;;2.33;;
8102;SDS011;4094;49.948;11.574;2023-04-23T14:30:59;2.57;;;2.47;;
8102;SDS011;4094;49.948;11.574;2023-04-23T14:33:40;2.83;;;2.50;;
8102;SDS011;4094;49.948;11.574;2023-04-23T14:36:36;2.50;;;2.30;;
8102;SDS011;4094;49.948;11.574;2023-04-23T14:39:07;2.70;;;2.60;;
8102;SDS011;4094;49.948;11.574;2023-04-23T14:41:36;2.70;;;2.50;;
8102;SDS011;4094;49.948;11.574;2023-04-23T14:44:06;2.50;;;2.40;;
8102;SDS011;4094;49.948;11.574;2023-04-23T14:46:36;2.40;;;2.30;;
8102;SDS011;4094;49.948;11.574;2023-04-23T14:49:05;2.80;;;2.60;;
8102;SDS011;4094;49.948;11.574;2023-04-23T14:51:37;2.33;;;2.20;;
8102;SDS011;4094;49.948;11.574;2023-04-23T14:54:18;2.50;;;2.40;;
8102;SDS011;4094;49.948;11.574;2023-04-23T14:56:48;2.60;;;2.40;;
8102;SDS011;4094;49.948;11.574;2023-04-23T14:59:24;2.70;;;2.60;;
8102;SDS011;4094;49.948;11.574;2023-04-23T15:01:56;2.50;;;2.40;;
8102;SDS011;4094;49.948;11.574;2023-04-23T15:04:34;2.63;;;2.53;;
8102;SDS011;4094;49.948;11.574;2023-04-23T15:07:12;2.87;;;2.70;;
8102;SDS011;4094;49.948;11.574;2023-04-23T15:09:53;4.90;;;2.70;;
8102;SDS011;4094;49.948;11.574;2023-04-23T15:12:53;2.97;;;2.77;;
8102;SDS011;4094;49.948;11.574;2023-04-23T15:15:35;2.90;;;2.70;;
8102;SDS011;4094;49.948;11.574;2023-04-23T15:18:14;2.20;;;2.10;;
8102;SDS011;4094;49.948;11.574;2023-04-23T15:20:47;2.50;;;2.40;;
8102;SDS011;4094;49.948;11.574;2023-04-23T15:23:19;2.70;;;2.50;;
8102;SDS011;4094;49.948;11.574;2023-04-23T15:26:02;2.87;;;2.70;;
8102;SDS011;4094;49.948;11.574;2023-04-23T15:28:43;2.83;;;2.50;;
8102;SDS011;4094;49.948;11.574;2023-04-23T15:31:13;2.80;;;2.60;;